Latest Weather Observations for Innisfail Aero

IDQ60801

Issued at 1:52 am EST Friday 26 April 2019 (issued every 10 minutes, with the page automatically refreshed every 10 minutes)

About weather observations | Map of weather stations | Latest weather observations for QLD | Other Formats
Station Details ID: 032197 Name: INNISFAIL AERODROME Lat: -17.56 Lon: 146.01 Height: 11.84 m
Data from the previous 72 hours. | See also: Recent months at Innisfail Aero
Date/Time
EST
Temp
°C
App
Temp
°C
Dew
Point
°C
Rel
Hum
%
Delta-T
°C
Wind Press
QNH
hPa
Press
MSL
hPa
Rain since
9am
mm
Dir  Spd
km/h
Gust
km/h
Spd
kts
Gust
kts
26/01:43am 22.6 27.2 22.4 99 0.1 W 2 6 1 3 1011.8 1011.8 0.0
26/01:30am 22.5 26.2 22.3 99 0.1 NNW 6 7 3 4 1011.9 1011.9 0.0
26/01:20am 22.3 25.8 22.1 99 0.1 NW 7 9 4 5 1012.0 1012.0 0.0
26/01:17am 22.4 25.9 22.2 99 0.1 W 7 9 4 5 1012.0 1012.0 0.0
26/01:00am 22.4 25.9 22.2 99 0.1 NW 7 9 4 5 1012.2 1012.2 0.0
26/12:35am 22.5 27.4 22.3 99 0.1 CALM 0 7 0 4 1012.3 1012.3 0.0
26/12:31am 22.6 27.5 22.4 99 0.1 CALM 0 0 0 0 1012.3 1012.3 0.0
26/12:30am 22.6 27.5 22.4 99 0.1 CALM 0 0 0 0 1012.3 1012.3 0.0
26/12:12am 22.7 26.6 22.5 99 0.1 ENE 6 9 3 5 1012.5 1012.5 0.0
26/12:00am 22.7 27.7 22.5 99 0.1 CALM 0 0 0 0 1012.6 1012.6 0.0
 
Date/Time
EST
Temp
°C
App
Temp
°C
Dew
Point
°C
Rel
Hum
%
Delta-T
°C
Wind Press
QNH
hPa
Press
MSL
hPa
Rain since
9am
mm
Dir  Spd
km/h
Gust
km/h
Spd
kts
Gust
kts
25/11:54pm 22.5 27.4 22.3 99 0.1 CALM 0 0 0 0 1012.6 1012.6 0.0
25/11:30pm 22.3 27.0 22.0 98 0.2 CALM 0 0 0 0 1012.7 1012.7 0.0
25/11:03pm 22.4 27.2 22.1 98 0.2 CALM 0 2 0 1 1012.8 1012.8 0.0
25/11:00pm 22.5 27.0 22.2 98 0.2 NW 2 6 1 3 1012.8 1012.8 0.0
25/10:31pm 22.6 26.3 22.3 98 0.2 NNW 6 7 3 4 1012.9 1012.9 0.0
25/10:30pm 22.6 26.3 22.3 98 0.2 NW 6 7 3 4 1012.9 1012.9 0.0
25/10:00pm 23.1 27.1 22.8 98 0.2 W 6 7 3 4 1012.9 1012.9 0.0
25/09:51pm 23.2 27.3 22.9 98 0.2 NW 6 7 3 4 1012.9 1012.9 0.0
25/09:30pm 23.3 26.9 23.0 98 0.2 SW 9 11 5 6 1012.8 1012.8 0.0
25/09:29pm 23.3 26.9 23.0 98 0.2 SW 9 11 5 6 1012.8 1012.8 0.0
25/09:00pm 23.1 26.9 22.8 98 0.2 WSW 7 9 4 5 1012.8 1012.8 0.0
25/08:57pm 23.0 26.8 22.7 98 0.2 WSW 7 9 4 5 1012.7 1012.7 0.0
25/08:30pm 22.9 26.7 22.4 97 0.3 WSW 6 7 3 4 1012.5 1012.5 0.0
25/08:00pm 23.0 27.9 22.3 96 0.5 CALM 0 2 0 1 1012.3 1012.3 0.0
25/07:30pm 23.5 27.5 22.7 95 0.5 SW 6 7 3 4 1012.0 1012.0 0.0
25/07:00pm 24.2 29.5 23.0 93 0.8 CALM 0 0 0 0 1011.7 1011.7 0.0
25/06:30pm 24.6 29.4 22.8 90 1.2 SSE 2 6 1 3 1011.4 1011.4 0.0
25/06:00pm 25.3 29.1 22.8 86 1.7 ESE 7 9 4 5 1011.2 1011.2 0.0
25/05:30pm 26.6 30.2 23.1 81 2.4 E 9 11 5 6 1010.7 1010.7 0.0
25/05:00pm 27.5 30.9 22.7 75 3.3 ESE 9 13 5 7 1010.3 1010.3 0.0
25/04:30pm 28.0 31.3 23.2 75 3.3 E 11 17 6 9 1010.3 1010.3 0.0
25/04:00pm 28.1 31.2 22.8 73 3.6 ESE 11 19 6 10 1010.0 1010.0 0.0
25/03:30pm 28.1 30.5 22.3 70 3.9 E 13 17 7 9 1010.0 1010.0 0.0
25/03:00pm 28.8 30.8 22.3 68 4.4 E 15 20 8 11 1010.0 1010.0 0.0
25/02:30pm 28.9 31.3 22.9 70 4.1 E 15 20 8 11 1010.2 1010.2 0.0
25/02:00pm 28.9 31.8 23.1 71 4.0 E 13 20 7 11 1010.3 1010.3 0.0
25/01:30pm 29.1 32.6 24.2 75 3.4 ESE 13 22 7 12 1010.6 1010.6 0.0
25/01:00pm 27.9 29.6 22.4 72 3.7 ESE 17 22 9 12 1011.1 1011.1 0.0
25/12:30pm 28.6 30.5 22.1 68 4.4 E 15 20 8 11 1011.2 1011.2 0.0
25/12:00pm 28.8 31.1 22.1 67 4.5 ESE 13 19 7 10 1011.6 1011.6 0.0
25/11:41am 28.3 31.6 22.5 71 3.9 E 9 13 5 7 1012.1 1012.1 0.0
25/11:30am 27.7 31.2 22.9 75 3.3 SE 9 24 5 13 1012.2 1012.2 0.0
25/11:25am 27.9 32.2 23.3 76 3.1 SE 6 11 3 6 1012.3 1012.3 0.0
25/11:21am 27.8 32.1 24.2 81 2.5 SE 9 13 5 7 1012.3 1012.3 0.0
25/11:00am 27.2 31.3 23.0 78 2.9 SE 6 11 3 6 1012.8 1012.8 0.0
25/10:30am 27.1 31.2 23.3 80 2.6 SSE 7 11 4 6 1013.0 1013.0 0.0
25/10:14am 26.6 30.6 23.1 81 2.4 S 7 9 4 5 1013.1 1013.1 0.0
25/10:00am 26.5 30.4 22.6 79 2.6 SSW 6 11 3 6 1013.1 1013.1 0.0
25/09:30am 25.5 29.1 23.0 86 1.7 SW 9 11 5 6 1012.9 1012.9 0.0
25/09:00am 24.2 27.9 23.2 94 0.7 SW 9 11 5 6 1012.8 1012.8 47.8
25/08:30am 23.1 25.7 22.6 97 0.3 SW 13 15 7 8 1012.6 1012.6 47.8
25/08:00am 22.8 26.1 22.6 99 0.1 WSW 9 13 5 7 1012.4 1012.4 47.8
25/07:30am 22.6 25.1 22.4 99 0.1 SW 13 15 7 8 1012.1 1012.1 47.8
25/07:00am 22.6 25.5 22.4 99 0.1 SW 11 13 6 7 1012.0 1012.0 47.6
25/06:57am 22.6 25.5 22.4 99 0.1 SW 11 13 6 7 1012.0 1012.0 47.6
25/06:30am 22.5 26.1 22.3 99 0.1 SSW 7 9 4 5 1011.9 1011.9 47.0
25/06:05am 22.6 25.5 22.4 99 0.1 SW 11 13 6 7 1011.5 1011.5 46.2
25/06:00am 22.6 25.5 22.4 99 0.1 SW 11 13 6 7 1011.4 1011.4 46.2
25/05:30am 22.8 26.5 22.6 99 0.1 SSW 7 9 4 5 1011.3 1011.3 45.4
25/05:05am 22.8 27.9 22.6 99 0.1 CALM 0 0 0 0 1011.0 1011.0 43.6
25/05:00am 22.9 28.0 22.7 99 0.1 CALM 0 0 0 0 1011.0 1011.0 43.4
25/04:52am 22.9 28.0 22.7 99 0.1 CALM 0 0 0 0 1011.0 1011.0 42.8
25/04:30am 22.9 28.0 22.7 99 0.1 CALM 0 0 0 0 1011.0 1011.0 40.8
25/04:00am 23.0 27.8 22.8 99 0.1 SSE 2 7 1 4 1010.8 1010.8 36.0
25/03:30am 23.0 26.8 22.8 99 0.1 S 7 11 4 6 1010.8 1010.8 31.0
25/03:23am 23.0 26.8 22.8 99 0.1 S 7 9 4 5 1010.7 1010.7 30.4
25/03:22am 23.0 26.8 22.8 99 0.1 S 7 9 4 5 1010.7 1010.7 30.4
25/03:00am 23.1 25.8 22.9 99 0.1 SSE 13 17 7 9 1010.9 1010.9 28.6
25/02:30am 23.1 26.2 22.9 99 0.1 S 11 15 6 8 1010.8 1010.8 26.0
25/02:00am 23.1 26.2 22.8 98 0.2 SSW 11 15 6 8 1010.8 1010.8 23.8
25/01:30am 23.2 25.6 23.0 99 0.1 SSW 15 22 8 12 1011.2 1011.2 22.0
25/01:17am 23.2 26.8 23.0 99 0.1 SSW 9 11 5 6 1011.4 1011.4 20.4
25/01:08am 23.2 26.4 23.0 99 0.1 SSW 11 15 6 8 1011.5 1011.5 19.0
25/01:00am 23.2 25.6 22.9 98 0.2 SSW 15 17 8 9 1011.6 1011.6 18.0
25/12:30am 23.4 27.0 23.1 98 0.2 SW 9 11 5 6 1011.9 1011.9 12.8
25/12:00am 23.4 27.4 23.1 98 0.2 W 7 11 4 6 1012.0 1012.0 8.2
 
Date/Time
EST
Temp
°C
App
Temp
°C
Dew
Point
°C
Rel
Hum
%
Delta-T
°C
Wind Press
QNH
hPa
Press
MSL
hPa
Rain since
9am
mm
Dir  Spd
km/h
Gust
km/h
Spd
kts
Gust
kts
24/11:50pm 23.4 27.0 23.1 98 0.2 W 9 11 5 6 1012.1 1012.1 7.8
24/11:31pm 23.4 26.3 23.1 98 0.2 WSW 13 17 7 9 1012.3 1012.3 7.4
24/11:30pm 23.4 26.3 23.1 98 0.2 WSW 13 17 7 9 1012.3 1012.3 7.4
24/11:00pm 23.5 27.1 23.0 97 0.3 WSW 9 13 5 7 1012.6 1012.6 5.2
24/10:36pm 23.7 26.9 23.0 96 0.5 S 11 15 6 8 1012.7 1012.7 1.4
24/10:30pm 23.8 27.0 23.1 96 0.5 SSW 11 17 6 9 1012.7 1012.7 1.2
24/10:28pm 23.8 27.0 23.1 96 0.5 SSW 11 17 6 9 1012.7 1012.7 1.0
24/10:00pm 24.0 27.7 23.3 96 0.5 SSW 9 13 5 7 1012.9 1012.9 0.8
24/09:37pm 24.2 27.9 23.2 94 0.7 S 9 13 5 7 1013.0 1013.0 0.8
24/09:30pm 24.3 27.7 23.3 94 0.7 S 11 15 6 8 1012.9 1012.9 0.8
24/09:14pm 24.5 27.5 23.3 93 0.8 S 13 17 7 9 1013.0 1013.0 0.8
24/09:03pm 24.7 28.4 23.3 92 1.0 S 9 11 5 6 1013.0 1013.0 0.8
24/09:00pm 24.7 28.4 23.3 92 1.0 S 9 11 5 6 1013.0 1013.0 0.8
24/08:30pm 24.8 28.1 23.2 91 1.1 SSW 11 13 6 7 1012.9 1012.9 0.8
24/08:16pm 24.8 28.1 23.2 91 1.1 SSW 11 13 6 7 1012.7 1012.7 0.8
24/08:00pm 24.9 28.4 23.5 92 1.0 SSW 11 13 6 7 1012.6 1012.6 0.8
24/07:30pm 24.7 28.5 23.5 93 0.8 SSW 9 13 5 7 1012.3 1012.3 0.8
24/07:00pm 24.9 27.5 23.3 91 1.1 S 15 17 8 9 1011.8 1011.8 0.8
24/06:30pm 25.0 27.2 23.2 90 1.2 S 17 22 9 12 1011.5 1011.5 0.8
24/06:00pm 25.3 27.5 23.2 88 1.4 S 17 20 9 11 1011.4 1011.4 0.8
24/05:30pm 25.8 27.3 23.1 85 1.8 SSE 20 28 11 15 1011.2 1011.2 0.8
24/05:00pm 26.0 27.5 23.1 84 2.0 SSE 20 28 11 15 1011.1 1011.1 0.8
24/04:30pm 27.1 28.0 23.3 80 2.6 SSE 24 32 13 17 1010.8 1010.8 0.8
24/04:00pm 27.0 27.6 22.8 78 2.9 SSE 24 30 13 16 1010.6 1010.6 0.8
24/03:30pm 27.8 28.9 23.6 78 2.9 SSE 24 32 13 17 1010.5 1010.5 0.8
24/03:00pm 27.9 28.7 23.1 75 3.3 SSE 24 32 13 17 1010.6 1010.6 0.8
24/02:30pm 28.4 29.8 24.2 78 2.9 SSE 24 32 13 17 1010.7 1010.7 0.8
24/02:00pm 28.4 28.3 22.2 69 4.2 S 26 32 14 17 1011.1 1011.1 0.8
24/01:30pm 28.4 28.8 22.4 70 4.1 S 24 32 13 17 1011.3 1011.3 0.8
24/01:00pm 28.5 28.7 23.4 74 3.5 S 28 37 15 20 1011.9 1011.9 0.8
24/12:30pm 28.1 28.4 23.0 74 3.5 SSE 26 37 14 20 1012.3 1012.3 0.8
24/12:00pm 27.3 30.4 24.2 83 2.1 SSW 15 20 8 11 1012.8 1012.8 0.8
24/11:30am 26.6 30.3 24.6 89 1.4 SSW 13 20 7 11 1013.4 1013.4 0.8
24/11:00am 27.1 28.6 22.7 77 3.0 S 19 26 10 14 1013.8 1013.8 0.2
24/10:43am 27.1 29.1 22.9 78 2.9 SSW 17 22 9 12 1013.9 1013.9 0.2
24/10:30am 27.3 29.2 23.7 81 2.5 SSW 20 28 11 15 1014.1 1014.1 0.2
24/10:15am 27.1 28.8 23.1 79 2.7 SSW 19 24 10 13 1014.3 1014.3 0.2
24/10:00am 27.1 29.5 23.6 81 2.4 SSW 17 24 9 13 1014.3 1014.3 0.0
24/09:53am 27.2 29.5 24.1 83 2.1 SSW 19 24 10 13 1014.4 1014.4 0.0
24/09:30am 26.4 29.3 23.9 86 1.7 SSW 15 19 8 10 1014.4 1014.4 0.0
24/09:21am 26.4 29.9 24.2 88 1.5 SW 13 17 7 9 1014.3 1014.3 0.0
24/09:00am 24.8 28.8 23.8 94 0.7 WSW 9 11 5 6 1014.3 1014.3 35.0
24/08:41am 24.1 27.9 23.4 96 0.5 W 9 11 5 6 1014.2 1014.2 35.0
24/08:30am 23.9 27.7 23.4 97 0.3 W 9 11 5 6 1014.1 1014.1 35.0
24/08:26am 23.8 28.0 23.5 98 0.2 W 7 9 4 5 1014.1 1014.1 35.0
24/08:23am 23.7 27.9 23.4 98 0.2 W 7 9 4 5 1014.2 1014.2 35.0
24/08:18am 23.7 27.9 23.4 98 0.2 W 7 9 4 5 1014.1 1014.1 35.0
24/08:10am 23.6 27.7 23.3 98 0.2 W 7 11 4 6 1014.1 1014.1 35.0
24/08:06am 23.6 27.7 23.3 98 0.2 W 7 11 4 6 1014.1 1014.1 35.0
24/08:00am 23.4 27.6 23.1 98 0.2 W 6 7 3 4 1014.0 1014.0 35.0
24/07:56am 23.4 27.6 23.2 99 0.1 W 6 7 3 4 1014.0 1014.0 34.8
24/07:31am 23.1 27.5 22.8 98 0.2 N 4 7 2 4 1013.7 1013.7 34.0
24/07:30am 23.2 27.7 22.9 98 0.2 N 4 7 2 4 1013.7 1013.7 34.0
24/07:27am 23.2 27.7 22.9 98 0.2 NW 4 7 2 4 1013.7 1013.7 33.8
24/07:15am 23.0 28.1 22.7 98 0.2 CALM 0 0 0 0 1013.6 1013.6 33.6
24/07:00am 23.0 28.1 22.7 98 0.2 CALM 0 6 0 3 1013.6 1013.6 33.2
24/06:30am 22.9 26.9 22.7 99 0.1 NW 6 11 3 6 1013.3 1013.3 33.0
24/06:20am 22.8 26.1 22.6 99 0.1 NNW 9 11 5 6 1013.2 1013.2 33.0
24/06:00am 22.8 26.7 22.6 99 0.1 NNE 6 11 3 6 1013.0 1013.0 32.0
24/05:55am 22.8 27.1 22.6 99 0.1 NNW 4 7 2 4 1013.1 1013.1 31.0
24/05:51am 22.8 26.7 22.6 99 0.1 W 6 9 3 5 1013.0 1013.0 30.6
24/05:30am 22.8 26.1 22.6 99 0.1 NW 9 13 5 7 1012.8 1012.8 29.2
24/05:23am 22.8 25.8 22.6 99 0.1 NW 11 13 6 7 1012.7 1012.7 28.6
24/05:20am 22.8 26.5 22.6 99 0.1 NW 7 13 4 7 1012.6 1012.6 28.6
24/05:00am 22.7 26.9 22.4 98 0.2 WSW 4 9 2 5 1012.8 1012.8 25.4
24/04:43am 22.7 26.3 22.4 98 0.2 WSW 7 9 4 5 1012.6 1012.6 24.8
24/04:31am 22.7 26.5 22.4 98 0.2 SSW 6 9 3 5 1012.6 1012.6 24.4
24/04:30am 22.7 26.5 22.4 98 0.2 SSW 6 9 3 5 1012.6 1012.6 24.4
24/04:13am 22.7 26.3 22.4 98 0.2 WSW 7 11 4 6 1012.5 1012.5 23.6
24/04:00am 22.7 26.3 22.4 98 0.2 W 7 9 4 5 1012.4 1012.4 22.8
24/03:55am 22.7 26.3 22.4 98 0.2 WSW 7 9 4 5 1012.4 1012.4 22.8
24/03:30am 22.8 27.4 22.5 98 0.2 SW 2 7 1 4 1012.5 1012.5 22.8
24/03:00am 22.8 26.7 22.5 98 0.2 W 6 7 3 4 1012.7 1012.7 22.8
24/02:30am 22.8 26.7 22.5 98 0.2 WSW 6 7 3 4 1012.9 1012.9 22.8
24/02:00am 22.8 26.5 22.6 99 0.1 SW 7 9 4 5 1013.0 1013.0 22.8
24/01:47am 22.9 26.7 22.7 99 0.1 WSW 7 9 4 5 1013.1 1013.1 22.8
24/01:30am 22.8 26.7 22.5 98 0.2 SSW 6 9 3 5 1013.2 1013.2 22.6
24/01:16am 22.8 26.7 22.5 98 0.2 S 6 9 3 5 1013.4 1013.4 16.0
24/01:14am 22.8 27.0 22.5 98 0.2 SSW 4 9 2 5 1013.4 1013.4 14.8
24/01:00am 22.7 27.6 22.4 98 0.2 CALM 0 4 0 2 1013.4 1013.4 12.6
24/12:38am 22.8 26.7 22.5 98 0.2 NW 6 7 3 4 1013.6 1013.6 12.6
24/12:37am 22.8 26.7 22.5 98 0.2 NW 6 7 3 4 1013.6 1013.6 12.6
24/12:30am 22.8 26.1 22.5 98 0.2 WNW 9 15 5 8 1013.7 1013.7 12.6
24/12:09am 22.9 28.0 22.6 98 0.2 CALM 0 6 0 3 1014.1 1014.1 8.2
24/12:07am 22.9 28.0 22.6 98 0.2 CALM 0 0 0 0 1014.1 1014.1 7.2
24/12:06am 22.9 28.0 22.6 98 0.2 CALM 0 0 0 0 1014.1 1014.1 6.8
24/12:00am 22.9 28.0 22.6 98 0.2 CALM 0 0 0 0 1014.1 1014.1 5.8
 
Date/Time
EST
Temp
°C
App
Temp
°C
Dew
Point
°C
Rel
Hum
%
Delta-T
°C
Wind Press
QNH
hPa
Press
MSL
hPa
Rain since
9am
mm
Dir  Spd
km/h
Gust
km/h
Spd
kts
Gust
kts
23/11:55pm 22.9 27.8 22.4 97 0.3 CALM 0 0 0 0 1014.1 1014.1 5.6
23/11:49pm 22.9 27.8 22.4 97 0.3 CALM 0 0 0 0 1014.2 1014.2 5.6
23/11:41pm 22.8 27.3 22.3 97 0.3 S 2 7 1 4 1014.2 1014.2 5.4
23/11:30pm 22.9 25.8 22.4 97 0.3 SSE 11 19 6 10 1014.4 1014.4 5.0
23/11:24pm 22.9 24.9 22.2 96 0.5 SSE 15 30 8 16 1014.6 1014.6 3.0
23/11:18pm 23.1 26.3 22.3 95 0.5 SW 9 22 5 12 1014.5 1014.5 1.2
23/11:00pm 23.0 26.1 22.2 95 0.5 WSW 9 13 5 7 1014.4 1014.4 1.0
23/10:30pm 22.9 25.9 21.9 94 0.7 SW 9 13 5 7 1014.6 1014.6 1.0
23/10:00pm 23.2 26.2 22.0 93 0.8 WSW 9 13 5 7 1014.7 1014.7 1.0
23/09:56pm 23.3 26.4 22.1 93 0.8 WSW 9 13 5 7 1014.7 1014.7 1.0
23/09:30pm 23.6 26.8 22.4 93 0.8 SW 9 11 5 6 1014.8 1014.8 1.0
23/09:27pm 23.7 27.0 22.5 93 0.8 SW 9 11 5 6 1014.9 1014.9 1.0
23/09:00pm 23.5 26.7 22.3 93 0.8 SW 9 11 5 6 1014.8 1014.8 1.0
23/08:30pm 23.6 26.5 22.4 93 0.8 SW 11 13 6 7 1014.5 1014.5 1.0
23/08:00pm 23.7 27.5 22.7 94 0.7 SW 7 9 4 5 1014.4 1014.4 1.0
23/07:30pm 23.7 27.1 22.7 94 0.7 SW 9 11 5 6 1014.1 1014.1 1.0
23/07:00pm 24.0 27.5 22.8 93 0.8 SSW 9 11 5 6 1013.8 1013.8 1.0
23/06:30pm 24.3 26.7 22.9 92 0.9 SSW 15 22 8 12 1013.6 1013.6 1.0
23/06:00pm 24.3 28.1 23.4 95 0.6 SW 9 11 5 6 1013.5 1013.5 1.0
23/05:30pm 24.5 28.2 23.3 93 0.8 SSW 9 11 5 6 1013.3 1013.3 1.0
23/05:00pm 24.4 27.3 23.2 93 0.8 S 13 17 7 9 1013.2 1013.2 0.8
23/04:33pm 24.1 28.0 23.6 97 0.3 SSW 9 15 5 8 1012.9 1012.9 0.8
23/04:30pm 24.0 27.5 23.5 97 0.3 SSW 11 15 6 8 1012.9 1012.9 0.8
23/04:05pm 23.7 24.7 22.9 95 0.5 S 22 28 12 15 1012.9 1012.9 0.2
23/04:00pm 23.8 24.8 22.8 94 0.7 S 22 28 12 15 1012.9 1012.9 0.2
23/03:33pm 24.1 24.4 22.9 93 0.8 S 26 33 14 18 1012.7 1012.7 0.2
23/03:30pm 24.0 23.7 22.6 92 0.9 S 28 33 15 18 1012.7 1012.7 0.2
23/03:09pm 25.5 25.6 23.2 87 1.6 SSE 28 37 15 20 1012.8 1012.8 0.2
23/03:00pm 26.0 25.4 22.7 82 2.2 S 30 37 16 20 1012.7 1012.7 0.2
23/02:30pm 26.7 25.9 22.3 77 3.0 SSE 30 39 16 21 1012.6 1012.6 0.2
23/02:00pm 27.4 26.9 22.8 76 3.1 SSE 30 37 16 20 1013.0 1013.0 0.2
23/01:30pm 27.7 27.8 22.6 74 3.5 SSE 26 33 14 18 1013.3 1013.3 0.2
23/01:00pm 28.2 29.0 23.1 74 3.5 SSE 24 33 13 18 1013.6 1013.6 0.2
23/12:30pm 28.3 29.2 23.4 75 3.4 SSE 24 32 13 17 1013.9 1013.9 0.2
23/12:00pm 28.0 28.8 23.2 75 3.3 S 24 30 13 16 1014.3 1014.3 0.2
23/11:30am 27.2 28.2 21.7 72 3.7 S 19 24 10 13 1014.7 1014.7 0.2
23/11:00am 27.0 29.2 23.3 80 2.5 S 17 22 9 12 1015.1 1015.1 0.2
23/10:30am 26.3 27.9 22.8 81 2.4 S 19 28 10 15 1015.7 1015.7 0.0
23/10:00am 26.8 28.9 24.1 85 1.9 S 20 26 11 14 1015.7 1015.7 0.0
23/09:51am 26.3 27.5 23.2 83 2.1 S 22 26 12 14 1015.8 1015.8 0.0
23/09:30am 26.1 29.0 23.8 87 1.6 SSW 15 20 8 11 1015.9 1015.9 0.0
23/09:00am 24.7 28.5 23.5 93 0.8 SW 9 15 5 8 1015.7 1015.7 2.8
23/08:43am 23.6 27.7 22.9 96 0.5 SSW 6 11 3 6 1015.7 1015.7 2.8
23/08:31am 23.6 26.8 23.1 97 0.3 SSW 11 15 6 8 1015.6 1015.6 2.8
23/08:30am 23.7 27.0 23.2 97 0.3 SSW 11 15 6 8 1015.6 1015.6 2.8
23/08:28am 23.4 26.5 22.9 97 0.3 SSW 11 15 6 8 1015.5 1015.5 2.8
23/08:24am 23.5 27.1 23.0 97 0.3 SSW 9 17 5 9 1015.6 1015.6 2.4
23/08:00am 23.1 26.2 22.9 99 0.1 SSW 11 15 6 8 1015.5 1015.5 1.6
23/07:57am 23.2 26.4 23.0 99 0.1 SSW 11 15 6 8 1015.5 1015.5 1.6
23/07:55am 23.2 26.4 23.0 99 0.1 SSW 11 17 6 9 1015.5 1015.5 1.6
23/07:49am 23.0 25.7 22.8 99 0.1 SSW 13 20 7 11 1015.3 1015.3 1.6
23/07:32am 22.2 26.3 22.2 100 0.0 ENE 4 9 2 5 1015.3 1015.3 1.2
23/07:30am 22.1 25.4 21.9 99 0.1 ENE 7 22 4 12 1015.3 1015.3 1.2
23/07:00am 21.7 26.2 21.5 99 0.1 CALM 0 2 0 1 1014.7 1014.7 1.0
23/06:52am 21.6 25.3 21.4 99 0.1 WNW 4 7 2 4 1014.6 1014.6 1.0
23/06:30am 21.7 24.5 21.5 99 0.1 W 9 11 5 6 1014.3 1014.3 1.0
23/06:00am 21.6 24.7 21.4 99 0.1 N 7 15 4 8 1014.1 1014.1 1.0
23/05:30am 21.3 24.8 21.1 99 0.1 W 4 7 2 4 1013.7 1013.7 1.0
23/05:00am 21.5 25.9 21.3 99 0.1 CALM 0 0 0 0 1013.7 1013.7 0.4
23/04:30am 21.2 24.3 21.0 99 0.1 NW 6 6 3 3 1013.5 1013.5 0.4
23/04:24am 21.4 24.6 21.2 99 0.1 NNW 6 7 3 4 1013.5 1013.5 0.4
23/04:00am 21.6 24.7 21.4 99 0.1 NW 7 9 4 5 1013.6 1013.6 0.4
23/03:37am 21.4 25.0 21.2 99 0.1 E 4 13 2 7 1013.7 1013.7 0.4
23/03:30am 21.3 25.2 21.1 99 0.1 ENE 2 7 1 4 1013.6 1013.6 0.4
23/03:07am 21.0 24.0 20.8 99 0.1 NNW 6 7 3 4 1013.6 1013.6 0.0
23/03:06am 21.0 24.0 20.8 99 0.1 N 6 7 3 4 1013.5 1013.5 0.0
23/03:00am 21.1 23.9 20.9 99 0.1 N 7 7 4 4 1013.6 1013.6 0.0
23/02:30am 21.2 24.3 21.0 99 0.1 WNW 6 7 3 4 1013.8 1013.8 0.0
23/02:27am 21.1 23.9 20.9 99 0.1 WNW 7 7 4 4 1013.8 1013.8 0.0
23/02:06am 21.1 24.1 20.8 98 0.2 NW 6 7 3 4 1014.0 1014.0 0.0
23/02:00am 21.3 24.7 21.0 98 0.2 WNW 4 7 2 4 1014.0 1014.0 0.0

Other formats

Comma delimited format used in spreadsheet applications
http://www.bom.gov.au/fwo/IDQ60801/IDQ60801.94280.axf

JavaScript Object Notation format (JSON) in row-major order
http://www.bom.gov.au/fwo/IDQ60801/IDQ60801.94280.json

Data quality

Most of these data are generated automatically and are frequently updated. Quality checks on data are not normally performed. It is possible for incorrect values to appear. Refer to information at About Latest Weather Observations and please check the disclaimer before using these data.